createdAt,value
2022-11-18T00:01:09.090Z,23.75
2022-11-18T00:04:12.399Z,26.00
2022-11-18T00:07:16.191Z,21.00
2022-11-18T00:10:19.636Z,22.00
2022-11-18T00:13:40.098Z,23.00
2022-11-18T00:16:45.234Z,24.00
2022-11-18T00:19:48.640Z,22.40
2022-11-18T00:22:51.879Z,24.00
2022-11-18T00:25:55.174Z,22.80
2022-11-18T00:28:58.486Z,24.00
2022-11-18T00:32:03.118Z,24.00
2022-11-18T00:35:07.610Z,20.40
2022-11-18T00:38:10.848Z,22.00
2022-11-18T00:41:17.049Z,22.40
2022-11-18T00:44:19.285Z,23.60
2022-11-18T00:47:23.851Z,20.00
2022-11-18T00:50:27.315Z,24.00
2022-11-18T00:53:30.571Z,27.00
2022-11-18T00:56:34.164Z,23.00
2022-11-18T00:59:37.420Z,25.60
2022-11-18T01:02:42.064Z,22.50
2022-11-18T01:05:45.418Z,24.50
2022-11-18T01:08:48.776Z,23.00
2022-11-18T01:12:09.644Z,24.00
2022-11-18T01:15:12.960Z,23.40
2022-11-18T01:18:18.533Z,22.40
2022-11-18T01:21:22.084Z,23.00
2022-11-18T01:24:25.335Z,22.75
2022-11-18T01:27:29.096Z,19.00
2022-11-18T01:30:34.892Z,23.00
2022-11-18T01:33:39.847Z,20.00
2022-11-18T01:36:43.229Z,23.40
2022-11-18T01:39:46.510Z,22.00
2022-11-18T01:42:49.808Z,18.00
2022-11-18T01:45:55.014Z,24.00
2022-11-18T01:49:03.917Z,23.80
2022-11-18T01:52:07.612Z,21.25
2022-11-18T01:55:15.535Z,21.00
2022-11-18T01:58:25.376Z,20.50
2022-11-18T02:01:30.230Z,22.60
2022-11-18T02:04:36.110Z,20.00
2022-11-18T02:07:43.250Z,19.00
2022-11-18T02:10:46.904Z,18.60
2022-11-18T02:13:50.221Z,23.00
2022-11-18T02:17:06.129Z,22.00
2022-11-18T02:20:32.960Z,18.20
2022-11-18T02:24:15.863Z,20.00
2022-11-18T02:27:48.290Z,22.00
2022-11-18T02:31:00.360Z,22.00
2022-11-18T02:34:10.845Z,20.00
2022-11-18T02:37:19.639Z,19.40
2022-11-18T02:40:27.157Z,22.40
2022-11-18T02:43:35.181Z,23.00
2022-11-18T02:46:42.155Z,22.60
2022-11-18T02:49:50.634Z,23.00
2022-11-18T02:52:58.710Z,16.40
2022-11-18T02:56:05.040Z,20.00
2022-11-18T02:59:08.750Z,24.00
2022-11-18T03:02:17.474Z,23.00
2022-11-18T03:05:28.285Z,21.00
2022-11-18T03:08:39.828Z,19.75
2022-11-18T03:11:52.756Z,18.60
2022-11-18T03:15:06.890Z,22.00
2022-11-18T03:18:20.627Z,21.33
2022-11-18T03:21:31.516Z,22.80
2022-11-18T03:24:39.783Z,22.00
2022-11-18T03:27:51.391Z,24.00
2022-11-18T03:31:00.529Z,23.00
2022-11-18T03:34:13.852Z,21.50
2022-11-18T03:37:19.823Z,22.50
2022-11-18T03:40:27.563Z,22.00
2022-11-18T03:43:35.788Z,21.00
2022-11-18T03:46:43.461Z,21.00
2022-11-18T03:49:54.151Z,21.40
2022-11-18T03:52:57.902Z,23.40
2022-11-18T03:56:12.778Z,22.80
2022-11-18T03:59:23.942Z,22.00
2022-11-18T04:02:30.442Z,22.00
2022-11-18T04:05:40.038Z,20.25
2022-11-18T04:08:47.843Z,19.75
2022-11-18T04:12:05.757Z,21.40
2022-11-18T04:15:10.126Z,21.00
2022-11-18T04:18:13.504Z,20.00
2022-11-18T04:21:18.163Z,20.00
2022-11-18T04:24:21.454Z,22.60
2022-11-18T04:27:24.804Z,21.00
2022-11-18T04:30:28.226Z,21.50
2022-11-18T04:33:31.729Z,17.50
2022-11-18T04:36:36.619Z,17.20
2022-11-18T04:39:39.814Z,22.00
2022-11-18T04:42:43.332Z,20.00
2022-11-18T04:45:46.736Z,19.40
2022-11-18T04:48:50.319Z,20.00
2022-11-18T04:51:55.402Z,16.60
2022-11-18T04:54:58.658Z,21.00
2022-11-18T04:58:01.922Z,15.40
2022-11-18T05:01:05.143Z,13.40
2022-11-18T05:04:09.284Z,19.80
2022-11-18T05:07:17.096Z,23.00
2022-11-18T05:10:20.487Z,20.00
2022-11-18T05:13:22.699Z,21.33
2022-11-18T05:16:26.214Z,18.40
2022-11-18T05:19:29.690Z,22.60
2022-11-18T05:22:34.430Z,21.00
2022-11-18T05:25:38.116Z,23.00
2022-11-18T05:28:41.518Z,21.50
2022-11-18T05:31:44.775Z,20.00
2022-11-18T05:34:48.011Z,19.40
2022-11-18T05:37:52.692Z,19.20
2022-11-18T05:40:56.190Z,19.00
2022-11-18T05:43:58.812Z,20.00
2022-11-18T05:47:02.119Z,22.00
2022-11-18T05:50:06.102Z,22.00
2022-11-18T05:53:10.748Z,20.60
2022-11-18T05:56:20.800Z,20.80
2022-11-18T05:59:24.318Z,17.20
2022-11-18T06:02:30.500Z,18.00
2022-11-18T06:05:33.814Z,23.60
2022-11-18T06:08:44.240Z,24.00
2022-11-18T06:11:53.261Z,23.40
2022-11-18T06:15:01.361Z,22.00
2022-11-18T06:18:09.785Z,22.80
2022-11-18T06:21:13.374Z,24.00
2022-11-18T06:24:19.479Z,26.40
2022-11-18T06:27:23.302Z,23.50
2022-11-18T06:30:26.564Z,24.00
2022-11-18T06:33:29.763Z,25.80
2022-11-18T06:36:33.250Z,23.00
2022-11-18T06:39:38.472Z,22.00
2022-11-18T06:42:59.556Z,19.80
2022-11-18T06:46:21.085Z,21.00
2022-11-18T06:49:24.607Z,19.00
2022-11-18T06:52:27.837Z,20.50
2022-11-18T06:55:32.463Z,23.00
2022-11-18T06:58:37.068Z,23.80
2022-11-18T07:01:41.596Z,25.00
2022-11-18T07:04:44.877Z,24.00
2022-11-18T07:07:48.306Z,20.40
2022-11-18T07:10:55.189Z,19.80
2022-11-18T07:13:58.876Z,21.60
2022-11-18T07:17:02.663Z,23.00
2022-11-18T07:20:06.806Z,22.00
2022-11-18T07:23:10.036Z,21.00
2022-11-18T07:26:15.522Z,20.00
2022-11-18T07:29:19.069Z,20.00
2022-11-18T07:32:22.517Z,19.20
2022-11-18T07:35:25.910Z,21.00
2022-11-18T07:38:29.506Z,20.20
2022-11-18T07:41:34.876Z,20.00
2022-11-18T07:44:38.175Z,23.00
2022-11-18T07:47:41.724Z,17.00
2022-11-18T07:50:47.262Z,19.40
2022-11-18T07:53:51.032Z,20.00
2022-11-18T07:56:55.639Z,21.00
2022-11-18T07:59:58.882Z,20.00
2022-11-18T08:03:02.147Z,17.20
2022-11-18T08:06:07.683Z,20.00
2022-11-18T08:09:11.256Z,20.00
2022-11-18T08:12:15.844Z,18.60
2022-11-18T08:15:19.068Z,18.80
2022-11-18T08:18:23.092Z,20.60
2022-11-18T08:21:26.601Z,18.40
2022-11-18T08:24:29.887Z,17.00
2022-11-18T08:27:34.848Z,16.00
2022-11-18T08:30:39.254Z,22.00
2022-11-18T08:33:42.772Z,21.50
2022-11-18T08:36:45.936Z,20.00
2022-11-18T08:39:49.284Z,20.00
2022-11-18T08:42:53.834Z,18.25
2022-11-18T08:45:57.079Z,15.40
2022-11-18T08:49:01.039Z,18.00
2022-11-18T08:52:04.446Z,14.20
2022-11-18T08:55:08.057Z,22.40
2022-11-18T08:58:12.822Z,14.00
2022-11-18T09:01:16.356Z,21.00
2022-11-18T09:04:20.118Z,18.00
2022-11-18T09:07:23.653Z,20.40
2022-11-18T09:10:26.929Z,18.00
2022-11-18T09:13:56.184Z,22.00
2022-11-18T09:16:54.755Z,20.00
2022-11-18T09:19:58.057Z,17.20
2022-11-18T09:23:01.544Z,20.00
2022-11-18T09:26:07.296Z,19.00
2022-11-18T09:29:12.767Z,18.00
2022-11-18T09:32:16.133Z,18.00
2022-11-18T09:35:19.320Z,20.00
2022-11-18T09:38:22.625Z,18.80
2022-11-18T09:41:45.211Z,17.20
2022-11-18T09:45:08.547Z,18.20
2022-11-18T09:48:19.610Z,17.80
2022-11-18T09:51:27.505Z,20.50
2022-11-18T09:54:34.732Z,22.00
2022-11-18T09:57:41.032Z,19.80
2022-11-18T10:00:46.810Z,23.20
2022-11-18T10:03:50.082Z,20.75
2022-11-18T10:06:53.576Z,22.00
2022-11-18T10:09:59.074Z,22.00
2022-11-18T10:13:11.388Z,17.80
2022-11-18T10:16:32.816Z,21.00
2022-11-18T10:19:41.974Z,20.20
2022-11-18T10:22:52.300Z,21.00
2022-11-18T10:25:56.313Z,22.00
2022-11-18T10:28:59.603Z,21.25
2022-11-18T10:32:06.366Z,22.00
2022-11-18T10:35:27.097Z,21.50
2022-11-18T10:38:30.399Z,20.60
2022-11-18T10:41:40.755Z,20.00
2022-11-18T10:44:44.180Z,19.20
2022-11-18T10:47:59.349Z,19.80
2022-11-18T10:51:23.111Z,20.00
2022-11-18T10:54:26.673Z,19.20
2022-11-18T10:57:36.399Z,16.75
2022-11-18T11:00:47.831Z,18.00
2022-11-18T11:04:04.725Z,21.00
2022-11-18T11:07:17.267Z,19.80
2022-11-18T11:10:24.419Z,20.00
2022-11-18T11:13:31.559Z,21.60
2022-11-18T11:16:43.056Z,20.00
2022-11-18T11:19:53.248Z,18.00
2022-11-18T11:22:57.486Z,21.00
2022-11-18T11:29:48.697Z,22.00
2022-11-18T11:33:16.821Z,21.60
2022-11-18T11:36:36.791Z,23.00
2022-11-18T11:39:55.532Z,22.00
2022-11-18T11:43:18.087Z,22.80
2022-11-18T11:46:29.407Z,22.25
2022-11-18T11:49:45.615Z,23.00
2022-11-18T11:53:10.737Z,21.40
2022-11-18T11:56:22.892Z,23.00
2022-11-18T11:59:34.393Z,22.50
2022-11-18T12:02:55.344Z,24.80
2022-11-18T12:05:58.639Z,25.40
2022-11-18T12:09:09.991Z,23.00
2022-11-18T12:12:36.819Z,23.60
2022-11-18T12:15:49.937Z,24.60
2022-11-18T12:18:59.798Z,25.60
2022-11-18T12:22:04.992Z,23.00
2022-11-18T12:25:55.462Z,22.00
2022-11-18T12:29:23.407Z,23.00
2022-11-18T12:32:42.970Z,24.00
2022-11-18T12:35:49.661Z,23.20
2022-11-18T12:38:53.447Z,22.20
2022-11-18T12:42:16.629Z,26.00
2022-11-18T12:45:51.978Z,24.00
2022-11-18T12:48:55.305Z,21.00
2022-11-18T12:52:00.098Z,24.00
2022-11-18T12:55:12.994Z,23.00
2022-11-18T12:58:28.716Z,24.00
2022-11-18T13:01:35.322Z,23.40
2022-11-18T13:04:44.544Z,25.25
2022-11-18T13:08:10.055Z,23.50
2022-11-18T13:11:35.886Z,24.00
2022-11-18T13:15:01.555Z,24.50
2022-11-18T13:18:13.861Z,22.00
2022-11-18T13:21:41.030Z,26.00
2022-11-18T13:24:46.712Z,27.40
2022-11-18T13:27:57.386Z,24.40
2022-11-18T13:31:08.881Z,23.50
2022-11-18T13:34:19.520Z,25.00
2022-11-18T13:37:25.232Z,25.40
2022-11-18T13:40:30.744Z,24.20
2022-11-18T13:43:34.680Z,27.00
2022-11-18T13:46:40.961Z,25.00
2022-11-18T13:49:57.126Z,22.80
2022-11-18T13:53:09.405Z,26.60
2022-11-18T13:56:20.364Z,23.00
2022-11-18T13:59:25.542Z,24.00
2022-11-18T14:02:30.292Z,21.00
2022-11-18T14:05:34.165Z,25.60
2022-11-18T14:08:39.662Z,23.80
2022-11-18T14:11:44.323Z,22.00
2022-11-18T14:14:48.039Z,24.00
2022-11-18T14:17:57.800Z,23.00
2022-11-18T14:21:03.133Z,24.00
2022-11-18T14:24:07.533Z,26.40
2022-11-18T14:27:32.538Z,26.25
2022-11-18T14:30:37.718Z,24.40
2022-11-18T14:33:42.760Z,24.00
2022-11-18T14:36:46.515Z,25.00
2022-11-18T14:39:56.226Z,24.20
2022-11-18T14:43:00.357Z,26.20
2022-11-18T14:46:06.840Z,24.00
2022-11-18T14:49:17.011Z,26.00
2022-11-18T14:52:20.587Z,22.00
2022-11-18T14:55:23.895Z,25.00
2022-11-18T14:58:27.206Z,26.40
2022-11-18T15:01:31.187Z,24.50
2022-11-18T15:04:36.080Z,25.00
2022-11-18T15:07:39.352Z,24.20
2022-11-18T15:10:43.936Z,25.20
2022-11-18T15:13:47.582Z,24.00
2022-11-18T15:16:50.933Z,26.50
2022-11-18T15:19:55.617Z,23.80
2022-11-18T15:22:59.133Z,25.00
2022-11-18T15:26:03.824Z,24.00
2022-11-18T15:29:07.716Z,24.00
2022-11-18T15:32:10.941Z,24.40
2022-11-18T15:35:15.822Z,24.40
2022-11-18T15:38:19.052Z,23.00
2022-11-18T15:41:25.579Z,25.00
2022-11-18T15:44:28.882Z,24.40
2022-11-18T15:47:32.143Z,27.00
2022-11-18T15:50:36.944Z,28.00
2022-11-18T15:53:40.540Z,29.00
2022-11-18T15:56:43.866Z,28.00
2022-11-18T15:59:47.370Z,28.00
2022-11-18T16:02:50.625Z,28.00
2022-11-18T16:05:55.190Z,26.40
2022-11-18T16:09:00.207Z,25.40
2022-11-18T16:12:21.611Z,27.00
2022-11-18T16:15:41.922Z,29.00
2022-11-18T16:18:45.487Z,28.00
2022-11-18T16:21:51.884Z,27.00
2022-11-18T16:24:55.214Z,29.00
2022-11-18T16:28:03.793Z,26.50
2022-11-18T16:31:27.904Z,28.00
2022-11-18T16:34:31.382Z,26.00
2022-11-18T16:37:36.065Z,26.00
2022-11-18T16:40:39.321Z,25.00
2022-11-18T16:43:42.523Z,28.00
2022-11-18T16:46:50.389Z,24.00
2022-11-18T16:49:53.706Z,28.75
2022-11-18T16:52:58.616Z,29.25
2022-11-18T16:56:04.346Z,26.00
2022-11-18T16:59:12.405Z,23.00
2022-11-18T17:02:16.353Z,28.00
2022-11-18T17:05:19.627Z,25.75
2022-11-18T17:08:24.300Z,26.20
2022-11-18T17:11:27.952Z,26.00
2022-11-18T17:14:31.688Z,24.00
2022-11-18T17:17:35.010Z,26.80
2022-11-18T17:20:38.333Z,25.80
2022-11-18T17:23:43.068Z,28.50
2022-11-18T17:26:47.532Z,26.60
2022-11-18T17:29:51.845Z,26.50
2022-11-18T17:32:56.360Z,30.00
2022-11-18T17:36:01.616Z,27.40
2022-11-18T17:39:06.582Z,26.00
2022-11-18T17:42:17.675Z,25.75
2022-11-18T17:45:20.817Z,27.00
2022-11-18T17:48:25.404Z,23.75
2022-11-18T17:51:29.872Z,24.00
2022-11-18T17:54:34.570Z,26.00
2022-11-18T17:57:37.821Z,27.00
2022-11-18T18:00:41.673Z,23.00
2022-11-18T18:03:45.395Z,26.00
2022-11-18T18:06:52.001Z,23.00
2022-11-18T18:09:56.815Z,25.80
2022-11-18T18:13:17.350Z,27.00
2022-11-18T18:16:20.713Z,27.00
2022-11-18T18:19:25.147Z,23.00
2022-11-18T18:22:28.548Z,28.40
2022-11-18T18:25:34.890Z,27.00
2022-11-18T18:28:39.072Z,27.00
2022-11-18T18:31:42.557Z,23.00
2022-11-18T18:34:45.992Z,27.00
2022-11-18T18:37:49.228Z,26.00
2022-11-18T18:40:54.462Z,27.00
2022-11-18T18:43:58.199Z,27.00
2022-11-18T18:47:00.506Z,25.00
2022-11-18T18:50:04.306Z,27.60
2022-11-18T18:53:08.019Z,24.00
2022-11-18T18:56:13.020Z,25.75
2022-11-18T18:59:16.477Z,19.40
2022-11-18T19:02:19.876Z,26.60
2022-11-18T19:05:38.873Z,26.40
2022-11-18T19:08:47.268Z,24.50
2022-11-18T19:12:09.790Z,26.40
2022-11-18T19:15:16.547Z,25.20
2022-11-18T19:18:23.583Z,28.00
2022-11-18T19:21:27.085Z,27.50
2022-11-18T19:24:48.612Z,27.00
2022-11-18T19:27:53.715Z,25.60
2022-11-18T19:31:00.086Z,29.00
2022-11-18T19:34:03.315Z,25.60
2022-11-18T19:37:06.526Z,25.60
2022-11-18T19:40:12.189Z,26.40
2022-11-18T19:43:16.762Z,27.40
2022-11-18T19:46:20.381Z,29.00
2022-11-18T19:49:23.703Z,27.00
2022-11-18T19:52:27.005Z,25.60
2022-11-18T19:55:30.737Z,27.40
2022-11-18T19:58:37.096Z,24.00
2022-11-18T20:01:40.933Z,28.00
2022-11-18T20:05:04.604Z,24.80
2022-11-18T20:08:08.096Z,25.00
2022-11-18T20:11:13.228Z,27.75
2022-11-18T20:14:18.371Z,26.00
2022-11-18T20:17:22.049Z,27.20
2022-11-18T20:20:25.263Z,26.20
2022-11-18T20:23:28.603Z,28.60
2022-11-18T20:26:36.623Z,27.40
2022-11-18T20:29:41.236Z,28.00
2022-11-18T20:32:46.102Z,27.00
2022-11-18T20:35:49.353Z,28.00
2022-11-18T20:38:54.770Z,26.00
2022-11-18T20:42:15.546Z,26.00
2022-11-18T20:45:20.422Z,27.00
2022-11-18T20:48:25.040Z,25.40
2022-11-18T20:51:29.703Z,24.00
2022-11-18T20:54:34.183Z,24.60
2022-11-18T20:57:37.504Z,25.00
2022-11-18T21:00:42.268Z,26.00
2022-11-18T21:03:52.743Z,26.75
2022-11-18T21:07:01.293Z,21.60
2022-11-18T21:10:05.020Z,20.00
2022-11-18T21:13:24.786Z,23.00
2022-11-18T21:16:29.786Z,24.00
2022-11-18T21:19:34.135Z,24.00
2022-11-18T21:22:36.256Z,23.00
2022-11-18T21:25:41.103Z,24.80
2022-11-18T21:28:44.311Z,20.40
2022-11-18T21:31:48.908Z,22.25
2022-11-18T21:34:52.196Z,21.00
2022-11-18T21:37:55.463Z,20.50
2022-11-18T21:41:03.764Z,26.00
2022-11-18T21:44:09.809Z,22.00
2022-11-18T21:47:14.333Z,21.00
2022-11-18T21:50:18.245Z,22.00
2022-11-18T21:53:21.485Z,18.20
2022-11-18T21:56:28.743Z,21.00
2022-11-18T21:59:32.018Z,20.00
2022-11-18T22:02:36.954Z,23.00
2022-11-18T22:05:40.219Z,19.20
2022-11-18T22:08:43.772Z,20.80
2022-11-18T22:11:46.960Z,22.00
2022-11-18T22:14:50.301Z,20.50
2022-11-18T22:17:55.004Z,20.80
2022-11-18T22:20:59.768Z,19.25
2022-11-18T22:24:03.035Z,21.60
2022-11-18T22:27:11.187Z,24.00
2022-11-18T22:30:15.530Z,23.00
2022-11-18T22:33:20.920Z,22.25
2022-11-18T22:36:25.845Z,21.80
2022-11-18T22:39:29.647Z,22.00
2022-11-18T22:42:50.796Z,22.80
2022-11-18T22:46:01.001Z,20.00
2022-11-18T22:49:06.407Z,23.00
2022-11-18T22:52:09.576Z,24.40
2022-11-18T22:55:12.977Z,25.20
2022-11-18T22:58:16.423Z,23.00
2022-11-18T23:01:21.624Z,21.00
2022-11-18T23:04:26.313Z,23.00
2022-11-18T23:07:30.044Z,22.40
2022-11-18T23:10:33.354Z,23.50
2022-11-18T23:13:54.097Z,23.40
2022-11-18T23:16:57.623Z,24.00
2022-11-18T23:20:02.290Z,25.00
2022-11-18T23:23:05.661Z,23.00
2022-11-18T23:26:11.138Z,24.00
2022-11-18T23:29:15.655Z,23.50
2022-11-18T23:32:19.176Z,20.00
2022-11-18T23:35:24.571Z,22.00
2022-11-18T23:38:28.968Z,24.00
2022-11-18T23:41:32.313Z,26.80
2022-11-18T23:44:49.197Z,22.80
2022-11-18T23:47:52.895Z,20.50
2022-11-18T23:50:59.218Z,25.50
2022-11-18T23:54:02.489Z,24.75
2022-11-18T23:57:05.894Z,26.00
